1882 Hurricane NOT_NAMED (1882244N19296)


IBTrACS version v04r00. Visit IBTrACS website for data access.
Please direct all questions to the IBTrACS Q and A forum

Storm track - Intensity - Wind Radii - Intensity Data - Source Data - All data

Summary Information

Storm ID 1882244N19296
Start Sep 1 00Z
Landfall Sep 5 12Z, Sep 6 09Z, Sep 10 02Z
Max Intensity 110 kt (Sep 10 00Z), 949 mb (Sep 10 00Z)
End Sep 13 12Z
ATCF IDs ,AL021882
Track status Best track data.

Storm track plot

Map of storm track

Intensity plots

Map of storm track

Radial wind information

No radial wind information for this storm


Position and Intensity Table

BASIN ISO_TIME_________ NATURE LAT LON WMO WIND WMO PRES USA WIND USA PRES MLC WIND MLC PRES
degrees north degrees east kts mb kts mb kts mb
NA 1882-09-01 00:00:00 TS 19.00 -64.00 30
NA 03:00:00 TS 19.15 -64.35 30
NA 06:00:00 TS 19.30 -64.70 30
NA 09:00:00 TS 19.45 -65.05 30
NA 12:00:00 TS 19.60 -65.40 30
NA 15:00:00 TS 19.75 -65.75 30
NA 18:00:00 TS 19.90 -66.10 30
NA 21:00:00 TS 20.05 -66.45 35
NA 1882-09-02 00:00:00 TS 19.97 -67.03 50 50 40
NA 03:00:00 TS 19.96 -67.59 50 40
NA 06:00:00 TS 20.02 -68.10 50 50 40
NA 09:00:00 TS 20.17 -68.56 50 45
NA 12:00:00 TS 20.40 -68.93 50 50 50
NA 15:00:00 TS 20.60 -69.32 50 50
NA 18:00:00 TS 20.80 -69.70 50 50 50
NA 21:00:00 TS 21.01 -70.08 55 52
NA 1882-09-03 00:00:00 TS 21.23 -70.47 60 60 55
NA 03:00:00 TS 21.46 -70.89 60 55
NA 06:00:00 TS 21.67 -71.30 60 60 55
NA 09:00:00 TS 21.85 -71.64 65 57
NA 12:00:00 TS 22.00 -72.00 70 70 60
NA 15:00:00 TS 22.11 -72.48 70 60
NA 18:00:00 TS 22.20 -73.00 70 70 60
NA 21:00:00 TS 22.33 -73.51 75 65
NA 1882-09-04 00:00:00 TS 22.43 -74.00 80 80 70
NA 03:00:00 TS 22.48 -74.45 80 75
NA 06:00:00 TS 22.50 -74.90 80 80 80 980
NA 09:00:00 TS 22.52 -75.40 85 80
NA 12:00:00 TS 22.53 -75.90 90 90 80
NA 15:00:00 TS 22.52 -76.38 90 80
NA 18:00:00 TS 22.50 -76.83 90 90 80
NA 21:00:00 TS 22.52 -77.27 90 80
NA 1882-09-05 00:00:00 TS 22.53 -77.70 90 90 80
NA 03:00:00 TS 22.51 -78.13 85 80
NA 06:00:00 TS 22.47 -78.57 80 80 80
NA 09:00:00 TS 22.43 -79.00 80 80
NA 12:00:00 TS 22.40 -79.50 80 80 80
NA 15:00:00 TS 22.38 -80.12 75 80
NA 18:00:00 TS 22.37 -80.77 70 70 80
NA 21:00:00 TS 22.38 -81.37 70 80
NA 1882-09-06 00:00:00 TS 22.40 -81.93 70 70 80
NA 03:00:00 TS 22.42 -82.45 70 80
NA 06:00:00 TS 22.43 -82.93 70 70 80
NA 09:00:00 TS 22.44 -83.39 70 80
NA 12:00:00 TS 22.43 -83.83 70 70 80
NA 15:00:00 TS 22.38 -84.28 70 80
NA 18:00:00 TS 22.33 -84.77 70 70 80
NA 21:00:00 TS 22.33 -85.38 75 80
NA 1882-09-07 00:00:00 TS 22.37 -86.00 80 981 80 981 80 981
NA 03:00:00 TS 22.46 -86.51 80 80
NA 06:00:00 TS 22.60 -86.97 80 80 80
NA 09:00:00 TS 22.73 -87.47 80 82
NA 12:00:00 TS 22.90 -87.87 80 80 85
NA 15:00:00 TS 23.15 -88.06 80 85
NA 18:00:00 TS 23.43 -88.17 80 80 85
NA 21:00:00 TS 23.67 -88.33 85 87
NA 1882-09-08 00:00:00 TS 23.93 -88.50 90 90 90
NA 03:00:00 TS 24.26 -88.68 90 90
NA 06:00:00 TS 24.60 -88.87 90 90 90
NA 09:00:00 TS 24.89 -89.07 90 90
NA 12:00:00 TS 25.17 -89.23 90 90 90
NA 15:00:00 TS 25.43 -89.34 90 92
NA 18:00:00 TS 25.70 -89.37 90 90 95
NA 21:00:00 TS 26.00 -89.34 90 95
NA 1882-09-09 00:00:00 TS 26.30 -89.23 90 90 95
NA 03:00:00 TS 26.58 -89.09 90 95
NA 06:00:00 TS 26.87 -88.90 90 90 95
NA 09:00:00 TS 27.16 -88.65 90 97
NA 12:00:00 TS 27.53 -88.40 90 90 100
NA 15:00:00 TS 28.02 -88.24 95 100
NA 18:00:00 TS 28.60 -88.03 100 961 100 961 100 960
NA 21:00:00 TS 29.23 -87.66 105 955 102 954
NA 1882-09-10 00:00:00 TS 29.90 -87.17 110 949 110 949 105 949
NA 02:00:00 TS 30.36 -86.79 110 949 110 949 96
NA 03:00:00 TS 30.59 -86.58 102 92
NA 06:00:00 TS 31.23 -85.90 80 80 80
NA 09:00:00 TS 31.81 -85.25 70 70
NA 12:00:00 TS 32.33 -84.63 60 60 60
NA 15:00:00 TS 32.85 -84.09 50 50
NA 18:00:00 TS 33.30 -83.60 40 40 40
NA 21:00:00 TS 33.65 -83.15 40 40
NA 1882-09-11 00:00:00 TS 33.97 -82.70 40 40 40
NA 03:00:00 TS 34.34 -82.20 40 40
NA 06:00:00 TS 34.73 -81.67 40 40 40
NA 09:00:00 TS 35.07 -81.19 40 40
NA 12:00:00 TS 35.47 -80.53 40 40 40
NA 15:00:00 TS 36.01 -79.54 40 40
NA 18:00:00 TS 36.67 -78.30 40 40 40
NA 21:00:00 TS 37.37 -76.93 45 45
NA 1882-09-12 00:00:00 TS 38.10 -75.47 50 50 50
NA 03:00:00 TS 38.76 -74.08 55 55
NA 06:00:00 TS 39.47 -72.63 60 60 60
NA 09:00:00 TS 40.26 -71.04 55 55
NA 12:00:00 TS 41.13 -69.33 50 1000 50 1000 50
NA 15:00:00 TS 42.08 -67.53 50 50
NA 18:00:00 MX 43.03 -65.70 50 50 50 1000
NA 21:00:00 MX 43.90 -63.92 45 45
NA 1882-09-13 00:00:00 ET 44.60 -62.40 40 40 40
NA 03:00:00 ET 45.18 -61.00 40 40
NA 06:00:00 ET 45.72 -59.60 40 40 40
NA 09:00:00 ET 45.86 -59.26 40
NA 12:00:00 ET 46.50 -57.50 40

Source Information

Agency Information
USA hurdat2-1851-2018-051019.txt:Line=4475:UNNAMED
TOKYO
CMA
HKO
NEWDELHI
REUNION
BOM
NADI
WELLINGTON
DS824
TD9636
TD9635
NEUMANN
MLC

All available IBTrACS Data

SEASON BASIN SUBBASIN ISO_TIME_________ NATURE LAT LON WMO WIND WMO PRES WMO AGENCY DIST2LAND LANDFALL IFLAG USA AGENCY USA ATCF_ID USA LAT USA LON USA RECORD USA STATUS USA WIND USA PRES USA SSHS MLC LAT MLC LON MLC CLASS MLC WIND MLC PRES STORM SPEED STORM DIR
Year degrees north degrees east kts mb km km degrees north degrees east kts mb 1 degrees north degrees east kts mb kts degrees
1882 NA NA 1882-09-01 00:00:00 TS 19.00 -64.00 181 157 _____________O -1 19.00 -64.00 TD 30 7 294
1882 NA NA 03:00:00 TS 19.15 -64.35 163 138 _____________P -1 19.15 -64.35 TD 30 7 294
1882 NA NA 06:00:00 TS 19.30 -64.70 138 128 _____________O -1 19.30 -64.70 TD 30 7 294
1882 NA NA 09:00:00 TS 19.45 -65.05 123 123 _____________P -1 19.45 -65.05 TD 30 7 294
1882 NA NA 12:00:00 TS 19.60 -65.40 135 134 _____________O -1 19.60 -65.40 TD 30 7 294
1882 NA NA 15:00:00 TS 19.75 -65.75 145 145 _____________P -1 19.75 -65.75 TD 30 7 295
1882 NA NA 18:00:00 TS 19.90 -66.10 167 167 _____________O -1 19.90 -66.10 TD 30 7 295
1882 NA NA 21:00:00 TS 20.05 -66.45 178 178 _____________P -1 20.05 -66.45 TD 35 9 274
1882 NA NA 1882-09-02 00:00:00 TS 19.97 -67.03 50 hurdat_atl 178 170 O____________O hurdat_atl AL021882 19.50 -67.50 TS 50 0 20.20 -66.80 TS 40 11 265
1882 NA NA 03:00:00 TS 19.96 -67.59 170 143 P____________P AL021882 19.57 -68.02 TS 50 0 20.35 -67.15 TS 40 10 273
1882 NA NA 06:00:00 TS 20.02 -68.10 50 hurdat_atl 143 122 O____________O hurdat_atl AL021882 19.70 -68.50 TS 50 0 20.50 -67.50 TS 40 9 283
1882 NA NA 09:00:00 TS 20.17 -68.56 124 118 P____________P AL021882 19.93 -68.92 TS 50 0 20.66 -67.85 TS 45 9 296
1882 NA NA 12:00:00 TS 20.40 -68.93 50 hurdat_atl 129 126 O____________O hurdat_atl AL021882 20.20 -69.30 TS 50 0 20.80 -68.20 TS 50 8 301
1882 NA NA 15:00:00 TS 20.60 -69.32 133 128 P____________P AL021882 20.45 -69.70 TS 50 0 20.90 -68.55 TS 50 8 299
1882 NA NA 18:00:00 TS 20.80 -69.70 50 hurdat_atl 137 135 O____________O hurdat_atl AL021882 20.70 -70.10 TS 50 0 21.00 -68.90 TS 50 8 300
1882 NA NA 21:00:00 TS 21.01 -70.08 143 143 P____________P AL021882 20.95 -70.49 TS 55 0 21.14 -69.25 TS 52 8 301
1882 NA NA 1882-09-03 00:00:00 TS 21.23 -70.47 60 hurdat_atl 156 156 O____________O hurdat_atl AL021882 21.20 -70.90 TS 60 0 21.30 -69.60 TS 55 9 300
1882 NA NA 03:00:00 TS 21.46 -70.89 190 181 P____________P AL021882 21.47 -71.36 TS 60 0 21.44 -69.95 TS 55 9 299
1882 NA NA 06:00:00 TS 21.67 -71.30 60 hurdat_atl 184 159 O____________O hurdat_atl AL021882 21.70 -71.80 TS 60 0 21.60 -70.30 TS 55 8 299
1882 NA NA 09:00:00 TS 21.85 -71.64 164 136 P____________P AL021882 21.87 -72.15 TS 65 1 21.81 -70.61 TS 57 7 297
1882 NA NA 12:00:00 TS 22.00 -72.00 70 hurdat_atl 136 118 O____________O hurdat_atl AL021882 22.00 -72.50 HU 70 1 22.00 -71.00 TS 60 8 288
1882 NA NA 15:00:00 TS 22.11 -72.48 113 105 P____________P AL021882 22.10 -72.94 HU 70 1 22.12 -71.56 TS 60 9 282
1882 NA NA 18:00:00 TS 22.20 -73.00 70 hurdat_atl 111 111 O____________O hurdat_atl AL021882 22.20 -73.40 HU 70 1 22.20 -72.20 TS 60 10 283
1882 NA NA 21:00:00 TS 22.33 -73.51 126 126 P____________P AL021882 22.36 -73.86 HU 75 1 22.25 -72.81 TS 65 10 284
1882 NA NA 1882-09-04 00:00:00 TS 22.43 -74.00 80 hurdat_atl 148 148 O____________O hurdat_atl AL021882 22.50 -74.30 HU 80 1 22.30 -73.40 HU 70 9 280
1882 NA NA 03:00:00 TS 22.48 -74.45 176 176 P____________P AL021882 22.52 -74.69 HU 80 1 22.40 -73.96 HU 75 8 275
1882 NA NA 06:00:00 TS 22.50 -74.90 80 hurdat_atl 182 167 O____________O hurdat_atl AL021882 22.50 -75.10 HU 80 1 22.50 -74.50 HU 80 980 9 273
1882 NA NA 09:00:00 TS 22.52 -75.40 167 148 P____________P AL021882 22.51 -75.59 HU 85 2 22.56 -75.01 HU 80 9 272
1882 NA NA 12:00:00 TS 22.53 -75.90 90 hurdat_atl 148 114 O____________O hurdat_atl AL021882 22.50 -76.10 HU 90 2 22.60 -75.50 HU 80 9 270
1882 NA NA 15:00:00 TS 22.52 -76.38 114 94 P____________P AL021882 22.45 -76.57 HU 90 2 22.65 -76.00 HU 80 9 268
1882 NA NA 18:00:00 TS 22.50 -76.83 90 hurdat_atl 94 89 O____________O hurdat_atl AL021882 22.40 -77.00 HU 90 2 22.70 -76.50 HU 80 8 270
1882 NA NA 21:00:00 TS 22.52 -77.27 84 63 P____________P AL021882 22.39 -77.41 HU 90 2 22.77 -77.00 HU 80 8 272
1882 NA NA 1882-09-05 00:00:00 TS 22.53 -77.70 90 hurdat_atl 63 38 O____________O hurdat_atl AL021882 22.40 -77.80 HU 90 2 22.80 -77.50 HU 80 8 269
1882 NA NA 03:00:00 TS 22.51 -78.13 38 22 P____________P AL021882 22.40 -78.19 HU 85 2 22.72 -78.00 HU 80 8 265
1882 NA NA 06:00:00 TS 22.47 -78.57 80 hurdat_atl 22 11 O____________O hurdat_atl AL021882 22.40 -78.60 HU 80 1 22.60 -78.50 HU 80 8 265
1882 NA NA 09:00:00 TS 22.43 -79.00 11 0 P____________P AL021882 22.40 -79.01 HU 80 1 22.49 -79.00 HU 80 9 266
1882 NA NA 12:00:00 TS 22.40 -79.50 80 hurdat_atl 0 0 O____________O hurdat_atl AL021882 22.40 -79.50 HU 80 1 22.40 -79.50 HU 80 10 267
1882 NA NA 15:00:00 TS 22.38 -80.12 0 0 P____________P AL021882 22.40 -80.19 HU 75 1 22.33 -79.98 HU 80 12 268
1882 NA NA 18:00:00 TS 22.37 -80.77 70 hurdat_atl 0 0 O____________O hurdat_atl AL021882 22.40 -80.90 HU 70 1 22.30 -80.50 HU 80 12 270
1882 NA NA 21:00:00 TS 22.38 -81.37 0 0 P____________P AL021882 22.40 -81.49 HU 70 1 22.34 -81.13 HU 80 11 272
1882 NA NA 1882-09-06 00:00:00 TS 22.40 -81.93 70 hurdat_atl 0 0 O____________O hurdat_atl AL021882 22.40 -82.00 HU 70 1 22.40 -81.80 HU 80 10 272
1882 NA CS 03:00:00 TS 22.42 -82.45 30 23 P____________P AL021882 22.40 -82.46 HU 70 1 22.46 -82.43 HU 80 9 272
1882 NA CS 06:00:00 TS 22.43 -82.93 70 hurdat_atl 23 0 O____________O hurdat_atl AL021882 22.40 -82.90 HU 70 1 22.50 -83.00 HU 80 9 272
1882 NA NA 09:00:00 TS 22.44 -83.39 0 0 P____________P AL021882 22.40 -83.36 HU 70 1 22.53 -83.45 HU 80 8 270
1882 NA NA 12:00:00 TS 22.43 -83.83 70 hurdat_atl 0 0 O____________O hurdat_atl AL021882 22.40 -83.80 HU 70 1 22.50 -83.90 HU 80 8 266
1882 NA NA 15:00:00 TS 22.38 -84.28 0 0 P____________P AL021882 22.38 -84.18 HU 70 1 22.37 -84.47 HU 80 9 263
1882 NA GM 18:00:00 TS 22.33 -84.77 70 hurdat_atl 41 41 O____________O hurdat_atl AL021882 22.40 -84.60 HU 70 1 22.20 -85.10 HU 80 10 267
1882 NA GM 21:00:00 TS 22.33 -85.38 60 60 P____________P AL021882 22.46 -85.20 HU 75 1 22.05 -85.74 HU 80 11 272
1882 NA GM 1882-09-07 00:00:00 TS 22.37 -86.00 80 981 hurdat_atl 117 113 O____________O hurdat_atl AL021882 22.60 -85.80 HU 80 981 1 21.90 -86.40 HU 80 981 11 278
1882 NA GM 03:00:00 TS 22.46 -86.51 123 113 P____________P AL021882 22.82 -86.24 HU 80 1 21.75 -87.05 HU 80 9 285
1882 NA GM 06:00:00 TS 22.60 -86.97 80 hurdat_atl 122 122 O____________O hurdat_atl AL021882 23.10 -86.60 HU 80 1 21.60 -87.70 HU 80 9 287
1882 NA GM 09:00:00 TS 22.73 -87.47 135 135 P____________P AL021882 23.40 -86.99 HU 80 1 21.38 -88.43 HU 82 9 290
1882 NA GM 12:00:00 TS 22.90 -87.87 80 hurdat_atl 156 156 O____________O hurdat_atl AL021882 23.70 -87.30 HU 80 1 21.30 -89.00 HU 85 7 308
1882 NA GM 15:00:00 TS 23.15 -88.06 190 190 P____________P AL021882 23.96 -87.47 HU 80 1 21.54 -89.23 HU 85 6 332
1882 NA GM 18:00:00 TS 23.43 -88.17 80 hurdat_atl 212 212 O____________O hurdat_atl AL021882 24.20 -87.60 HU 80 1 21.90 -89.30 HU 85 6 335
1882 NA GM 21:00:00 TS 23.67 -88.33 245 245 P____________P AL021882 24.44 -87.80 HU 85 2 22.15 -89.39 HU 87 6 328
1882 NA GM 1882-09-08 00:00:00 TS 23.93 -88.50 90 hurdat_atl 268 268 O____________O hurdat_atl AL021882 24.70 -88.00 HU 90 2 22.40 -89.50 HU 90 7 331
1882 NA GM 03:00:00 TS 24.26 -88.68 313 313 P____________P AL021882 25.04 -88.16 HU 90 2 22.70 -89.73 HU 90 7 333
1882 NA GM 06:00:00 TS 24.60 -88.87 90 hurdat_atl 347 347 O____________O hurdat_atl AL021882 25.40 -88.30 HU 90 2 23.00 -90.00 HU 90 7 331
1882 NA GM 09:00:00 TS 24.89 -89.07 383 383 P____________P AL021882 25.72 -88.46 HU 90 2 23.24 -90.27 HU 90 7 330
1882 NA GM 12:00:00 TS 25.17 -89.23 90 hurdat_atl 418 402 O____________O hurdat_atl AL021882 26.00 -88.60 HU 90 2 23.50 -90.50 HU 90 6 335
1882 NA GM 15:00:00 TS 25.43 -89.34 402 369 P____________P AL021882 26.21 -88.67 HU 90 2 23.86 -90.68 HU 92 5 347
1882 NA GM 18:00:00 TS 25.70 -89.37 90 hurdat_atl 369 335 O____________O hurdat_atl AL021882 26.40 -88.70 HU 90 2 24.30 -90.70 HU 95 6 0
1882 NA GM 21:00:00 TS 26.00 -89.34 335 301 P____________P AL021882 26.60 -88.76 HU 90 2 24.79 -90.48 HU 95 6 11
1882 NA GM 1882-09-09 00:00:00 TS 26.30 -89.23 90 hurdat_atl 301 267 O____________O hurdat_atl AL021882 26.80 -88.80 HU 90 2 25.30 -90.10 HU 95 6 20
1882 NA GM 03:00:00 TS 26.58 -89.09 267 235 P____________P AL021882 26.99 -88.78 HU 90 2 25.75 -89.72 HU 95 6 28
1882 NA GM 06:00:00 TS 26.87 -88.90 90 hurdat_atl 235 215 O____________O hurdat_atl AL021882 27.20 -88.70 HU 90 2 26.20 -89.30 HU 95 7 34
1882 NA GM 09:00:00 TS 27.16 -88.65 204 180 P____________P AL021882 27.40 -88.57 HU 90 2 26.69 -88.81 HU 97 8 34
1882 NA GM 12:00:00 TS 27.53 -88.40 90 hurdat_atl 180 136 O____________O hurdat_atl AL021882 27.70 -88.40 HU 90 2 27.20 -88.40 MH 100 9 23
1882 NA GM 15:00:00 TS 28.02 -88.24 142 110 P____________P AL021882 28.20 -88.24 HU 95 2 27.66 -88.24 MH 100 11 17
1882 NA GM 18:00:00 TS 28.60 -88.03 100 961 hurdat_atl 112 106 O____________O hurdat_atl AL021882 28.80 -88.00 HU 100 961 3 28.20 -88.10 MH 100 960 13 23
1882 NA GM 21:00:00 TS 29.23 -87.66 115 44 P____________P AL021882 29.39 -87.58 HU 105 955 3 28.89 -87.81 MH 102 954 15 30
1882 NA GM 1882-09-10 00:00:00 TS 29.90 -87.17 110 949 hurdat_atl 44 0 O____________O hurdat_atl AL021882 30.00 -87.10 HU 110 949 3 29.70 -87.30 MH 105 949 16 33
1882 NA GM 02:00:00 TS 30.36 -86.79 110 949 hurdat_atl 0 0 O____________P hurdat_atl AL021882 30.40 -86.80 L HU 110 949 3 30.28 -86.78 MH 96 17 36
1882 NA NA 03:00:00 TS 30.59 -86.58 0 0 P____________P AL021882 30.59 -86.63 HU 102 3 30.59 -86.48 MH 92 17 41
1882 NA NA 06:00:00 TS 31.23 -85.90 80 hurdat_atl 0 0 O____________O hurdat_atl AL021882 31.10 -86.10 HU 80 1 31.50 -85.50 HU 80 17 43
1882 NA NA 09:00:00 TS 31.81 -85.25 0 0 P____________P AL021882 31.50 -85.59 HU 70 1 32.43 -84.55 HU 70 15 44
1882 NA NA 12:00:00 TS 32.33 -84.63 60 hurdat_atl 0 0 O____________O hurdat_atl AL021882 31.90 -85.10 TS 60 0 33.20 -83.70 TS 60 14 43
1882 NA NA 15:00:00 TS 32.85 -84.09 0 0 P____________P AL021882 32.46 -84.59 TS 50 0 33.63 -83.09 TS 50 13 42
1882 NA NA 18:00:00 TS 33.30 -83.60 40 hurdat_atl 0 0 O____________O hurdat_atl AL021882 33.00 -84.10 TS 40 0 33.90 -82.60 TS 40 11 44
1882 NA NA 21:00:00 TS 33.65 -83.15 0 0 P____________P AL021882 33.37 -83.71 TS 40 0 34.20 -82.02 TS 40 10 48
1882 NA NA 1882-09-11 00:00:00 TS 33.97 -82.70 40 hurdat_atl 0 0 O____________O hurdat_atl AL021882 33.70 -83.30 TS 40 0 34.50 -81.50 TS 40 11 48
1882 NA NA 03:00:00 TS 34.34 -82.20 0 0 P____________P AL021882 34.09 -82.74 TS 40 0 34.85 -81.13 TS 40 11 48
1882 NA NA 06:00:00 TS 34.73 -81.67 40 hurdat_atl 0 0 O____________O hurdat_atl AL021882 34.50 -82.10 TS 40 0 35.20 -80.80 TS 40 11 49
1882 NA NA 09:00:00 TS 35.07 -81.19 0 0 P____________P AL021882 34.85 -81.54 TS 40 0 35.49 -80.47 TS 40 12 52
1882 NA NA 12:00:00 TS 35.47 -80.53 40 hurdat_atl 0 0 O____________O hurdat_atl AL021882 35.30 -80.80 TS 40 0 35.80 -80.00 TS 40 16 55
1882 NA NA 15:00:00 TS 36.01 -79.54 0 0 P____________P AL021882 35.93 -79.71 TS 40 0 36.18 -79.22 TS 40 22 56
1882 NA NA 18:00:00 TS 36.67 -78.30 40 hurdat_atl 0 0 O____________O hurdat_atl AL021882 36.70 -78.30 TS 40 0 36.60 -78.30 TS 40 25 57
1882 NA NA 21:00:00 TS 37.37 -76.93 0 0 P____________P AL021882 37.54 -76.67 TS 45 0 37.04 -77.45 TS 45 27 58
1882 NA NA 1882-09-12 00:00:00 TS 38.10 -75.47 50 hurdat_atl 0 0 O____________O hurdat_atl AL021882 38.40 -74.90 TS 50 0 37.50 -76.60 TS 50 26 58
1882 NA NA 03:00:00 TS 38.76 -74.08 61 61 P____________P AL021882 39.20 -73.20 TS 55 0 37.89 -75.85 TS 55 26 58
1882 NA NA 06:00:00 TS 39.47 -72.63 60 hurdat_atl 136 120 O____________O hurdat_atl AL021882 40.00 -71.50 TS 60 0 38.40 -74.90 TS 60 28 58
1882 NA NA 09:00:00 TS 40.26 -71.04 129 83 P____________P AL021882 40.82 -69.81 TS 55 0 39.14 -73.50 TS 55 30 57
1882 NA NA 12:00:00 TS 41.13 -69.33 50 1000 hurdat_atl 88 86 O____________O hurdat_atl AL021882 41.70 -68.10 TS 50 1000 0 40.00 -71.80 TS 50 32 55
1882 NA NA 15:00:00 TS 42.08 -67.53 208 56 P____________P AL021882 42.71 -66.31 TS 50 0 40.82 -69.98 TS 50 33 55
1882 NA NA 18:00:00 MX 43.03 -65.70 50 hurdat_atl 55 23 O____________O hurdat_atl AL021882 43.70 -64.50 TS 50 0 41.70 -68.10 EX 50 1000 32 55
1882 NA NA 21:00:00 MX 43.90 -63.92 50 22 P____________P AL021882 44.50 -62.74 TS 45 0 42.71 -66.28 EX 45 28 57
1882 NA NA 1882-09-13 00:00:00 ET 44.60 -62.40 40 hurdat_atl 23 0 O____________O hurdat_atl AL021882 45.20 -61.00 EX 40 -4 43.70 -64.50 EX 40 24 58
1882 NA NA 03:00:00 ET 45.18 -61.00 7 7 P____________P AL021882 45.86 -59.26 EX 40 -4 44.50 -62.74 EX 40 23 60
1882 NA NA 06:00:00 ET 45.72 -59.60 40 hurdat_atl 40 40 O____________O hurdat_atl AL021882 46.50 -57.50 EX 40 -4 45.20 -61.00 EX 40 14 61
1882 NA NA 09:00:00 ET 45.86 -59.26 50 50 _____________P AL021882 EX -4 45.86 -59.26 EX 40 17 62
1882 NA NA 12:00:00 ET 46.50 -57.50 119 _____________O -1 46.50 -57.50 EX 40 27 62